Irwin, Idaho
Current Conditions -  °F | °C
As of 11:23 AM on Sunday 21 Dec 2014 (Local Time) from KDIJ Reporting Station
Broken Clouds Broken Clouds  
Wind Chill: 26°   Ceiling: 10000
Heat Index: 37°   Visibility: 10mi
Dew Point: 32°   Wind: 23mph
Humidity: 81%   Direction: 260°W
Pressure: 29.7"   Gusts: 32mph
Location:  43.41°N, 111.3°W
Report Text: KDIJ 211823Z AUTO 26020G28KT 10SM SCT019 SCT075 BKN100 03/00 A2970 RMK AO2 BKN V SCT PK WND 26028/1818
Loading
Personal Weather Stations






























Interactive Weather Map New forecast layout! Learn more

10-Day Weather Forecast

Advertisements
Track Severe Weather on mobile